East Amwell Township, New Jersey
Current Conditions -  °F | °C
As of 12:53 PM on Sunday 25 Jan 2015 (Local Time) from KTTN Reporting Station
Broken Clouds Broken Clouds  
Wind Chill: 36°   Ceiling: 4700
Heat Index: 43°   Visibility: 10mi
Dew Point: 29°   Wind: 15mph
Humidity: 58%   Direction: 280°W
Pressure: 29.79"   Gusts: 25mph
Location:  40.4412°N, 74.8354°W
Report Text: KTTN 251753Z 28013G22KT 10SM SCT031 BKN047 06/M02 A2979 RMK AO2 SLP083 T00611017 10061 20006 50011
Loading
Personal Weather Stations






























Interactive Weather Map New forecast layout! Learn more

10-Day Weather Forecast

Advertisements
Track Severe Weather on mobile